sensor_id;sensor_type;location;lat;lon;timestamp;P1;durP1;ratioP1;P2;durP2;ratioP2
4585;SDS011;2305;50.118;8.952;2022-12-07T00:01:50;11.10;;;6.33;;
4585;SDS011;2305;50.118;8.952;2022-12-07T00:04:18;10.50;;;7.03;;
4585;SDS011;2305;50.118;8.952;2022-12-07T00:06:50;10.33;;;6.47;;
4585;SDS011;2305;50.118;8.952;2022-12-07T00:09:19;10.90;;;7.40;;
4585;SDS011;2305;50.118;8.952;2022-12-07T00:11:48;13.20;;;7.57;;
4585;SDS011;2305;50.118;8.952;2022-12-07T00:14:20;11.60;;;7.40;;
4585;SDS011;2305;50.118;8.952;2022-12-07T00:16:50;14.13;;;8.30;;
4585;SDS011;2305;50.118;8.952;2022-12-07T00:19:19;10.97;;;7.03;;
4585;SDS011;2305;50.118;8.952;2022-12-07T00:21:47;9.90;;;6.67;;
4585;SDS011;2305;50.118;8.952;2022-12-07T00:24:16;20.23;;;8.47;;
4585;SDS011;2305;50.118;8.952;2022-12-07T00:26:47;9.73;;;6.70;;
4585;SDS011;2305;50.118;8.952;2022-12-07T00:29:16;12.03;;;6.53;;
4585;SDS011;2305;50.118;8.952;2022-12-07T00:31:45;10.80;;;6.60;;
4585;SDS011;2305;50.118;8.952;2022-12-07T00:34:18;9.63;;;6.60;;
4585;SDS011;2305;50.118;8.952;2022-12-07T00:36:48;17.93;;;7.23;;
4585;SDS011;2305;50.118;8.952;2022-12-07T00:39:17;10.53;;;7.00;;
4585;SDS011;2305;50.118;8.952;2022-12-07T00:41:45;11.10;;;7.00;;
4585;SDS011;2305;50.118;8.952;2022-12-07T00:44:13;14.27;;;8.13;;
4585;SDS011;2305;50.118;8.952;2022-12-07T00:46:42;13.00;;;7.23;;
4585;SDS011;2305;50.118;8.952;2022-12-07T00:49:12;11.33;;;6.40;;
4585;SDS011;2305;50.118;8.952;2022-12-07T00:51:42;12.17;;;6.83;;
4585;SDS011;2305;50.118;8.952;2022-12-07T00:54:10;13.03;;;7.30;;
4585;SDS011;2305;50.118;8.952;2022-12-07T00:56:41;11.50;;;7.00;;
4585;SDS011;2305;50.118;8.952;2022-12-07T00:59:10;15.27;;;7.90;;
4585;SDS011;2305;50.118;8.952;2022-12-07T01:01:41;9.10;;;6.70;;
4585;SDS011;2305;50.118;8.952;2022-12-07T01:04:10;10.40;;;6.90;;
4585;SDS011;2305;50.118;8.952;2022-12-07T01:06:42;9.93;;;7.20;;
4585;SDS011;2305;50.118;8.952;2022-12-07T01:09:10;10.40;;;7.10;;
4585;SDS011;2305;50.118;8.952;2022-12-07T01:11:39;11.83;;;7.57;;
4585;SDS011;2305;50.118;8.952;2022-12-07T01:14:08;11.60;;;7.00;;
4585;SDS011;2305;50.118;8.952;2022-12-07T01:16:38;10.43;;;7.10;;
4585;SDS011;2305;50.118;8.952;2022-12-07T01:19:07;15.57;;;8.03;;
4585;SDS011;2305;50.118;8.952;2022-12-07T01:21:38;14.13;;;7.80;;
4585;SDS011;2305;50.118;8.952;2022-12-07T01:24:09;11.10;;;7.73;;
4585;SDS011;2305;50.118;8.952;2022-12-07T01:26:38;11.17;;;7.37;;
4585;SDS011;2305;50.118;8.952;2022-12-07T01:29:10;12.03;;;7.20;;
4585;SDS011;2305;50.118;8.952;2022-12-07T01:31:39;9.50;;;6.97;;
4585;SDS011;2305;50.118;8.952;2022-12-07T01:34:11;14.83;;;8.20;;
4585;SDS011;2305;50.118;8.952;2022-12-07T01:36:39;11.80;;;7.67;;
4585;SDS011;2305;50.118;8.952;2022-12-07T01:39:10;12.00;;;7.60;;
4585;SDS011;2305;50.118;8.952;2022-12-07T01:41:40;12.00;;;6.60;;
4585;SDS011;2305;50.118;8.952;2022-12-07T01:44:12;10.63;;;6.83;;
4585;SDS011;2305;50.118;8.952;2022-12-07T01:46:49;12.30;;;7.93;;
4585;SDS011;2305;50.118;8.952;2022-12-07T01:49:20;14.07;;;8.93;;
4585;SDS011;2305;50.118;8.952;2022-12-07T01:51:58;14.50;;;9.00;;
4585;SDS011;2305;50.118;8.952;2022-12-07T01:54:41;12.57;;;7.37;;
4585;SDS011;2305;50.118;8.952;2022-12-07T01:57:11;14.10;;;8.30;;
4585;SDS011;2305;50.118;8.952;2022-12-07T01:59:42;12.80;;;7.67;;
4585;SDS011;2305;50.118;8.952;2022-12-07T02:02:17;13.10;;;8.20;;
4585;SDS011;2305;50.118;8.952;2022-12-07T02:04:50;14.30;;;8.00;;
4585;SDS011;2305;50.118;8.952;2022-12-07T02:07:23;10.90;;;7.13;;
4585;SDS011;2305;50.118;8.952;2022-12-07T02:09:54;13.13;;;8.00;;
4585;SDS011;2305;50.118;8.952;2022-12-07T02:12:30;11.03;;;7.17;;
4585;SDS011;2305;50.118;8.952;2022-12-07T02:14:58;10.80;;;7.37;;
4585;SDS011;2305;50.118;8.952;2022-12-07T02:17:28;12.10;;;7.90;;
4585;SDS011;2305;50.118;8.952;2022-12-07T02:20:12;12.60;;;8.30;;
4585;SDS011;2305;50.118;8.952;2022-12-07T02:23:04;15.50;;;7.53;;
4585;SDS011;2305;50.118;8.952;2022-12-07T02:25:57;13.43;;;9.10;;
4585;SDS011;2305;50.118;8.952;2022-12-07T02:28:58;14.57;;;8.17;;
4585;SDS011;2305;50.118;8.952;2022-12-07T02:31:45;15.30;;;8.20;;
4585;SDS011;2305;50.118;8.952;2022-12-07T02:34:22;12.43;;;7.90;;
4585;SDS011;2305;50.118;8.952;2022-12-07T02:37:00;14.43;;;8.53;;
4585;SDS011;2305;50.118;8.952;2022-12-07T02:39:40;15.67;;;9.20;;
4585;SDS011;2305;50.118;8.952;2022-12-07T02:42:14;13.73;;;7.90;;
4585;SDS011;2305;50.118;8.952;2022-12-07T02:44:47;13.70;;;8.33;;
4585;SDS011;2305;50.118;8.952;2022-12-07T02:47:17;11.97;;;7.70;;
4585;SDS011;2305;50.118;8.952;2022-12-07T02:49:49;12.97;;;7.87;;
4585;SDS011;2305;50.118;8.952;2022-12-07T02:52:18;15.93;;;7.83;;
4585;SDS011;2305;50.118;8.952;2022-12-07T02:54:47;11.70;;;8.00;;
4585;SDS011;2305;50.118;8.952;2022-12-07T02:57:24;15.70;;;6.93;;
4585;SDS011;2305;50.118;8.952;2022-12-07T03:00:05;11.13;;;7.43;;
4585;SDS011;2305;50.118;8.952;2022-12-07T03:02:39;14.47;;;7.43;;
4585;SDS011;2305;50.118;8.952;2022-12-07T03:05:20;12.63;;;6.83;;
4585;SDS011;2305;50.118;8.952;2022-12-07T03:08:13;12.03;;;7.07;;
4585;SDS011;2305;50.118;8.952;2022-12-07T03:10:49;12.97;;;7.17;;
4585;SDS011;2305;50.118;8.952;2022-12-07T03:13:25;11.10;;;7.47;;
4585;SDS011;2305;50.118;8.952;2022-12-07T03:16:05;11.10;;;6.30;;
4585;SDS011;2305;50.118;8.952;2022-12-07T03:18:40;10.60;;;6.70;;
4585;SDS011;2305;50.118;8.952;2022-12-07T03:21:21;20.03;;;6.80;;
4585;SDS011;2305;50.118;8.952;2022-12-07T03:23:53;11.70;;;7.00;;
4585;SDS011;2305;50.118;8.952;2022-12-07T03:26:24;11.40;;;6.67;;
4585;SDS011;2305;50.118;8.952;2022-12-07T03:28:58;11.80;;;6.30;;
4585;SDS011;2305;50.118;8.952;2022-12-07T03:31:34;9.97;;;6.60;;
4585;SDS011;2305;50.118;8.952;2022-12-07T03:34:08;9.73;;;6.40;;
4585;SDS011;2305;50.118;8.952;2022-12-07T03:36:40;15.23;;;6.40;;
4585;SDS011;2305;50.118;8.952;2022-12-07T03:39:17;11.13;;;6.70;;
4585;SDS011;2305;50.118;8.952;2022-12-07T03:41:50;11.53;;;7.00;;
4585;SDS011;2305;50.118;8.952;2022-12-07T03:44:20;13.83;;;6.30;;
4585;SDS011;2305;50.118;8.952;2022-12-07T03:46:56;9.10;;;6.40;;
4585;SDS011;2305;50.118;8.952;2022-12-07T03:49:31;11.97;;;6.90;;
4585;SDS011;2305;50.118;8.952;2022-12-07T03:52:12;9.13;;;5.70;;
4585;SDS011;2305;50.118;8.952;2022-12-07T03:54:49;11.87;;;5.90;;
4585;SDS011;2305;50.118;8.952;2022-12-07T03:57:24;11.13;;;6.40;;
4585;SDS011;2305;50.118;8.952;2022-12-07T03:59:55;12.00;;;6.10;;
4585;SDS011;2305;50.118;8.952;2022-12-07T04:02:26;9.53;;;5.70;;
4585;SDS011;2305;50.118;8.952;2022-12-07T04:04:57;12.23;;;6.60;;
4585;SDS011;2305;50.118;8.952;2022-12-07T04:07:28;11.30;;;7.87;;
4585;SDS011;2305;50.118;8.952;2022-12-07T04:09:56;13.67;;;6.43;;
4585;SDS011;2305;50.118;8.952;2022-12-07T04:12:26;8.07;;;6.23;;
4585;SDS011;2305;50.118;8.952;2022-12-07T04:14:54;8.80;;;5.93;;
4585;SDS011;2305;50.118;8.952;2022-12-07T04:17:23;11.70;;;6.10;;
4585;SDS011;2305;50.118;8.952;2022-12-07T04:19:53;9.83;;;5.70;;
4585;SDS011;2305;50.118;8.952;2022-12-07T04:22:22;9.53;;;5.63;;
4585;SDS011;2305;50.118;8.952;2022-12-07T04:24:50;7.77;;;5.73;;
4585;SDS011;2305;50.118;8.952;2022-12-07T04:27:20;8.40;;;4.93;;
4585;SDS011;2305;50.118;8.952;2022-12-07T04:29:49;8.20;;;5.20;;
4585;SDS011;2305;50.118;8.952;2022-12-07T04:32:17;7.77;;;5.37;;
4585;SDS011;2305;50.118;8.952;2022-12-07T04:34:45;7.43;;;5.20;;
4585;SDS011;2305;50.118;8.952;2022-12-07T04:37:22;10.20;;;5.30;;
4585;SDS011;2305;50.118;8.952;2022-12-07T04:39:50;8.03;;;4.87;;
4585;SDS011;2305;50.118;8.952;2022-12-07T04:42:18;9.00;;;5.67;;
4585;SDS011;2305;50.118;8.952;2022-12-07T04:44:51;7.37;;;4.63;;
4585;SDS011;2305;50.118;8.952;2022-12-07T04:47:19;8.20;;;5.17;;
4585;SDS011;2305;50.118;8.952;2022-12-07T04:49:51;7.53;;;4.87;;
4585;SDS011;2305;50.118;8.952;2022-12-07T04:52:21;10.77;;;5.33;;
4585;SDS011;2305;50.118;8.952;2022-12-07T04:54:49;9.87;;;5.63;;
4585;SDS011;2305;50.118;8.952;2022-12-07T04:57:18;6.37;;;4.30;;
4585;SDS011;2305;50.118;8.952;2022-12-07T04:59:47;9.83;;;5.50;;
4585;SDS011;2305;50.118;8.952;2022-12-07T05:02:19;8.13;;;5.07;;
4585;SDS011;2305;50.118;8.952;2022-12-07T05:04:47;8.27;;;5.40;;
4585;SDS011;2305;50.118;8.952;2022-12-07T05:07:15;6.57;;;4.90;;
4585;SDS011;2305;50.118;8.952;2022-12-07T05:09:46;10.83;;;5.83;;
4585;SDS011;2305;50.118;8.952;2022-12-07T05:12:14;9.40;;;4.53;;
4585;SDS011;2305;50.118;8.952;2022-12-07T05:14:42;7.00;;;4.70;;
4585;SDS011;2305;50.118;8.952;2022-12-07T05:17:10;9.23;;;5.70;;
4585;SDS011;2305;50.118;8.952;2022-12-07T05:19:40;8.60;;;5.10;;
4585;SDS011;2305;50.118;8.952;2022-12-07T05:22:10;13.13;;;6.00;;
4585;SDS011;2305;50.118;8.952;2022-12-07T05:24:41;8.20;;;5.63;;
4585;SDS011;2305;50.118;8.952;2022-12-07T05:27:13;9.07;;;5.43;;
4585;SDS011;2305;50.118;8.952;2022-12-07T05:29:41;12.20;;;5.10;;
4585;SDS011;2305;50.118;8.952;2022-12-07T05:32:14;12.43;;;5.70;;
4585;SDS011;2305;50.118;8.952;2022-12-07T05:34:42;8.23;;;5.40;;
4585;SDS011;2305;50.118;8.952;2022-12-07T05:37:10;9.83;;;5.80;;
4585;SDS011;2305;50.118;8.952;2022-12-07T05:39:39;14.10;;;5.97;;
4585;SDS011;2305;50.118;8.952;2022-12-07T05:42:09;7.63;;;5.57;;
4585;SDS011;2305;50.118;8.952;2022-12-07T05:44:44;10.23;;;6.10;;
4585;SDS011;2305;50.118;8.952;2022-12-07T05:47:15;13.17;;;5.93;;
4585;SDS011;2305;50.118;8.952;2022-12-07T05:49:43;9.60;;;5.60;;
4585;SDS011;2305;50.118;8.952;2022-12-07T05:52:12;7.83;;;5.47;;
4585;SDS011;2305;50.118;8.952;2022-12-07T05:54:40;10.60;;;5.77;;
4585;SDS011;2305;50.118;8.952;2022-12-07T05:57:11;8.13;;;5.10;;
4585;SDS011;2305;50.118;8.952;2022-12-07T05:59:41;10.23;;;5.80;;
4585;SDS011;2305;50.118;8.952;2022-12-07T06:02:10;11.20;;;5.50;;
4585;SDS011;2305;50.118;8.952;2022-12-07T06:04:45;9.33;;;5.67;;
4585;SDS011;2305;50.118;8.952;2022-12-07T06:07:17;8.70;;;6.23;;
4585;SDS011;2305;50.118;8.952;2022-12-07T06:09:47;8.50;;;6.00;;
4585;SDS011;2305;50.118;8.952;2022-12-07T06:12:16;12.83;;;5.63;;
4585;SDS011;2305;50.118;8.952;2022-12-07T06:15:01;8.77;;;5.30;;
4585;SDS011;2305;50.118;8.952;2022-12-07T06:17:35;9.30;;;6.07;;
4585;SDS011;2305;50.118;8.952;2022-12-07T06:20:04;10.00;;;5.70;;
4585;SDS011;2305;50.118;8.952;2022-12-07T06:22:34;8.50;;;6.70;;
4585;SDS011;2305;50.118;8.952;2022-12-07T06:25:08;14.43;;;7.20;;
4585;SDS011;2305;50.118;8.952;2022-12-07T06:27:36;12.10;;;6.50;;
4585;SDS011;2305;50.118;8.952;2022-12-07T06:30:07;7.53;;;5.50;;
4585;SDS011;2305;50.118;8.952;2022-12-07T06:32:37;9.37;;;6.27;;
4585;SDS011;2305;50.118;8.952;2022-12-07T06:35:05;12.33;;;6.37;;
4585;SDS011;2305;50.118;8.952;2022-12-07T06:37:34;8.07;;;5.37;;
4585;SDS011;2305;50.118;8.952;2022-12-07T06:40:05;10.17;;;6.47;;
4585;SDS011;2305;50.118;8.952;2022-12-07T06:42:35;13.07;;;6.53;;
4585;SDS011;2305;50.118;8.952;2022-12-07T06:45:03;9.10;;;5.80;;
4585;SDS011;2305;50.118;8.952;2022-12-07T06:47:32;12.93;;;6.40;;
4585;SDS011;2305;50.118;8.952;2022-12-07T06:50:14;9.50;;;6.43;;
4585;SDS011;2305;50.118;8.952;2022-12-07T06:52:44;9.23;;;6.17;;
4585;SDS011;2305;50.118;8.952;2022-12-07T06:55:11;9.83;;;6.30;;
4585;SDS011;2305;50.118;8.952;2022-12-07T06:57:41;9.70;;;6.50;;
4585;SDS011;2305;50.118;8.952;2022-12-07T07:00:09;14.87;;;7.40;;
4585;SDS011;2305;50.118;8.952;2022-12-07T07:02:49;12.40;;;6.37;;
4585;SDS011;2305;50.118;8.952;2022-12-07T07:05:19;11.43;;;6.63;;
4585;SDS011;2305;50.118;8.952;2022-12-07T07:07:49;10.90;;;6.70;;
4585;SDS011;2305;50.118;8.952;2022-12-07T07:10:38;11.00;;;6.70;;
4585;SDS011;2305;50.118;8.952;2022-12-07T07:13:07;9.70;;;5.47;;
4585;SDS011;2305;50.118;8.952;2022-12-07T07:15:38;9.00;;;6.50;;
4585;SDS011;2305;50.118;8.952;2022-12-07T07:18:06;11.60;;;7.53;;
4585;SDS011;2305;50.118;8.952;2022-12-07T07:20:41;9.60;;;6.97;;
4585;SDS011;2305;50.118;8.952;2022-12-07T07:23:10;13.13;;;6.40;;
4585;SDS011;2305;50.118;8.952;2022-12-07T07:25:40;11.53;;;7.23;;
4585;SDS011;2305;50.118;8.952;2022-12-07T07:28:08;11.03;;;6.87;;
4585;SDS011;2305;50.118;8.952;2022-12-07T07:30:36;10.37;;;6.43;;
4585;SDS011;2305;50.118;8.952;2022-12-07T07:33:04;12.03;;;6.73;;
4585;SDS011;2305;50.118;8.952;2022-12-07T07:35:35;12.70;;;7.33;;
4585;SDS011;2305;50.118;8.952;2022-12-07T07:38:09;11.43;;;6.77;;
4585;SDS011;2305;50.118;8.952;2022-12-07T07:40:37;10.17;;;6.67;;
4585;SDS011;2305;50.118;8.952;2022-12-07T07:43:08;11.00;;;6.60;;
4585;SDS011;2305;50.118;8.952;2022-12-07T07:45:39;9.83;;;6.60;;
4585;SDS011;2305;50.118;8.952;2022-12-07T07:48:08;11.83;;;6.30;;
4585;SDS011;2305;50.118;8.952;2022-12-07T07:50:36;12.70;;;7.10;;
4585;SDS011;2305;50.118;8.952;2022-12-07T07:53:04;10.57;;;7.10;;
4585;SDS011;2305;50.118;8.952;2022-12-07T07:55:33;11.87;;;7.00;;
4585;SDS011;2305;50.118;8.952;2022-12-07T07:58:05;13.37;;;6.53;;
4585;SDS011;2305;50.118;8.952;2022-12-07T08:00:36;13.53;;;7.17;;
4585;SDS011;2305;50.118;8.952;2022-12-07T08:03:03;15.30;;;7.30;;
4585;SDS011;2305;50.118;8.952;2022-12-07T08:05:32;9.60;;;7.03;;
4585;SDS011;2305;50.118;8.952;2022-12-07T08:07:59;10.30;;;6.80;;
4585;SDS011;2305;50.118;8.952;2022-12-07T08:10:28;14.60;;;7.13;;
4585;SDS011;2305;50.118;8.952;2022-12-07T08:12:59;12.20;;;7.03;;
4585;SDS011;2305;50.118;8.952;2022-12-07T08:15:41;11.77;;;6.50;;
4585;SDS011;2305;50.118;8.952;2022-12-07T08:18:14;11.87;;;6.60;;
4585;SDS011;2305;50.118;8.952;2022-12-07T08:20:43;13.50;;;7.90;;
4585;SDS011;2305;50.118;8.952;2022-12-07T08:23:12;11.60;;;7.10;;
4585;SDS011;2305;50.118;8.952;2022-12-07T08:25:43;16.03;;;7.83;;
4585;SDS011;2305;50.118;8.952;2022-12-07T08:28:15;11.87;;;7.20;;
4585;SDS011;2305;50.118;8.952;2022-12-07T08:30:46;7.97;;;6.13;;
4585;SDS011;2305;50.118;8.952;2022-12-07T08:33:14;11.10;;;7.63;;
4585;SDS011;2305;50.118;8.952;2022-12-07T08:35:43;9.53;;;6.50;;
4585;SDS011;2305;50.118;8.952;2022-12-07T08:38:11;10.57;;;6.70;;
4585;SDS011;2305;50.118;8.952;2022-12-07T08:40:43;10.30;;;6.10;;
4585;SDS011;2305;50.118;8.952;2022-12-07T08:43:12;11.63;;;7.40;;
4585;SDS011;2305;50.118;8.952;2022-12-07T08:45:41;14.97;;;6.73;;
4585;SDS011;2305;50.118;8.952;2022-12-07T08:48:11;11.80;;;6.30;;
4585;SDS011;2305;50.118;8.952;2022-12-07T08:50:45;9.50;;;6.47;;
4585;SDS011;2305;50.118;8.952;2022-12-07T08:53:15;10.37;;;6.83;;
4585;SDS011;2305;50.118;8.952;2022-12-07T08:55:43;11.70;;;7.20;;
4585;SDS011;2305;50.118;8.952;2022-12-07T08:58:12;9.77;;;6.63;;
4585;SDS011;2305;50.118;8.952;2022-12-07T09:00:42;13.43;;;7.10;;
4585;SDS011;2305;50.118;8.952;2022-12-07T09:03:10;10.27;;;6.70;;
4585;SDS011;2305;50.118;8.952;2022-12-07T09:05:41;10.93;;;6.60;;
4585;SDS011;2305;50.118;8.952;2022-12-07T09:08:11;11.10;;;7.03;;
4585;SDS011;2305;50.118;8.952;2022-12-07T09:10:40;16.17;;;7.57;;
4585;SDS011;2305;50.118;8.952;2022-12-07T09:13:08;11.27;;;7.03;;
4585;SDS011;2305;50.118;8.952;2022-12-07T09:15:37;9.73;;;5.97;;
4585;SDS011;2305;50.118;8.952;2022-12-07T09:18:10;11.93;;;7.53;;
4585;SDS011;2305;50.118;8.952;2022-12-07T09:20:38;11.80;;;7.63;;
4585;SDS011;2305;50.118;8.952;2022-12-07T09:23:08;13.57;;;7.70;;
4585;SDS011;2305;50.118;8.952;2022-12-07T09:25:36;10.77;;;7.57;;
4585;SDS011;2305;50.118;8.952;2022-12-07T09:28:04;12.90;;;7.73;;
4585;SDS011;2305;50.118;8.952;2022-12-07T09:30:34;9.93;;;6.70;;
4585;SDS011;2305;50.118;8.952;2022-12-07T09:33:26;18.90;;;6.80;;
4585;SDS011;2305;50.118;8.952;2022-12-07T09:35:56;13.60;;;7.50;;
4585;SDS011;2305;50.118;8.952;2022-12-07T09:38:26;10.47;;;6.87;;
4585;SDS011;2305;50.118;8.952;2022-12-07T09:40:58;11.83;;;6.37;;
4585;SDS011;2305;50.118;8.952;2022-12-07T09:43:34;12.33;;;6.13;;
4585;SDS011;2305;50.118;8.952;2022-12-07T09:46:08;9.37;;;6.40;;
4585;SDS011;2305;50.118;8.952;2022-12-07T09:48:42;8.63;;;6.07;;
4585;SDS011;2305;50.118;8.952;2022-12-07T09:51:13;14.33;;;6.47;;
4585;SDS011;2305;50.118;8.952;2022-12-07T09:53:51;10.00;;;6.03;;
4585;SDS011;2305;50.118;8.952;2022-12-07T09:56:20;11.30;;;7.07;;
4585;SDS011;2305;50.118;8.952;2022-12-07T09:58:54;15.57;;;6.33;;
4585;SDS011;2305;50.118;8.952;2022-12-07T10:01:28;8.90;;;6.30;;
4585;SDS011;2305;50.118;8.952;2022-12-07T10:04:01;7.80;;;5.10;;
4585;SDS011;2305;50.118;8.952;2022-12-07T10:06:39;10.53;;;5.67;;
4585;SDS011;2305;50.118;8.952;2022-12-07T10:09:09;8.00;;;5.00;;
4585;SDS011;2305;50.118;8.952;2022-12-07T10:14:27;8.83;;;4.73;;
4585;SDS011;2305;50.118;8.952;2022-12-07T10:17:33;8.27;;;4.50;;
4585;SDS011;2305;50.118;8.952;2022-12-07T10:20:13;7.70;;;4.50;;
4585;SDS011;2305;50.118;8.952;2022-12-07T10:22:54;8.40;;;4.60;;
4585;SDS011;2305;50.118;8.952;2022-12-07T10:25:28;6.37;;;4.40;;
4585;SDS011;2305;50.118;8.952;2022-12-07T10:28:16;5.47;;;4.00;;
4585;SDS011;2305;50.118;8.952;2022-12-07T10:30:46;8.27;;;4.67;;
4585;SDS011;2305;50.118;8.952;2022-12-07T10:33:27;7.17;;;4.87;;
4585;SDS011;2305;50.118;8.952;2022-12-07T10:35:58;8.70;;;5.27;;
4585;SDS011;2305;50.118;8.952;2022-12-07T10:38:29;10.10;;;4.60;;
4585;SDS011;2305;50.118;8.952;2022-12-07T10:41:04;10.53;;;4.40;;
4585;SDS011;2305;50.118;8.952;2022-12-07T10:43:34;8.03;;;4.43;;
4585;SDS011;2305;50.118;8.952;2022-12-07T10:46:21;11.30;;;4.87;;
4585;SDS011;2305;50.118;8.952;2022-12-07T10:49:24;8.07;;;5.30;;
4585;SDS011;2305;50.118;8.952;2022-12-07T10:52:26;7.10;;;4.80;;
4585;SDS011;2305;50.118;8.952;2022-12-07T10:55:13;8.13;;;4.97;;
4585;SDS011;2305;50.118;8.952;2022-12-07T10:57:53;7.30;;;4.73;;
4585;SDS011;2305;50.118;8.952;2022-12-07T11:00:36;7.70;;;4.33;;
4585;SDS011;2305;50.118;8.952;2022-12-07T11:03:17;7.10;;;4.97;;
4585;SDS011;2305;50.118;8.952;2022-12-07T11:05:54;9.17;;;5.27;;
4585;SDS011;2305;50.118;8.952;2022-12-07T11:08:38;6.60;;;4.40;;
4585;SDS011;2305;50.118;8.952;2022-12-07T11:11:13;7.13;;;4.20;;
4585;SDS011;2305;50.118;8.952;2022-12-07T11:13:47;7.00;;;4.00;;
4585;SDS011;2305;50.118;8.952;2022-12-07T11:16:27;12.33;;;4.00;;
4585;SDS011;2305;50.118;8.952;2022-12-07T11:19:17;6.70;;;3.60;;
4585;SDS011;2305;50.118;8.952;2022-12-07T11:22:03;10.00;;;4.80;;
4585;SDS011;2305;50.118;8.952;2022-12-07T11:24:44;12.67;;;3.67;;
4585;SDS011;2305;50.118;8.952;2022-12-07T11:27:22;14.00;;;4.10;;
4585;SDS011;2305;50.118;8.952;2022-12-07T11:30:02;5.90;;;3.53;;
4585;SDS011;2305;50.118;8.952;2022-12-07T11:32:59;8.33;;;3.10;;
4585;SDS011;2305;50.118;8.952;2022-12-07T11:35:36;2.67;;;2.20;;
4585;SDS011;2305;50.118;8.952;2022-12-07T11:38:15;4.80;;;2.20;;
4585;SDS011;2305;50.118;8.952;2022-12-07T11:40:56;10.30;;;2.67;;
4585;SDS011;2305;50.118;8.952;2022-12-07T11:43:46;3.20;;;1.97;;
4585;SDS011;2305;50.118;8.952;2022-12-07T11:46:39;3.17;;;1.73;;
4585;SDS011;2305;50.118;8.952;2022-12-07T11:49:15;2.77;;;1.83;;
4585;SDS011;2305;50.118;8.952;2022-12-07T11:51:52;6.30;;;1.90;;
4585;SDS011;2305;50.118;8.952;2022-12-07T11:54:23;5.27;;;2.17;;
4585;SDS011;2305;50.118;8.952;2022-12-07T11:56:59;3.30;;;2.10;;
4585;SDS011;2305;50.118;8.952;2022-12-07T11:59:33;2.53;;;1.70;;
4585;SDS011;2305;50.118;8.952;2022-12-07T12:02:11;7.20;;;2.33;;
4585;SDS011;2305;50.118;8.952;2022-12-07T12:04:46;4.40;;;2.00;;
4585;SDS011;2305;50.118;8.952;2022-12-07T12:07:27;4.07;;;2.50;;
4585;SDS011;2305;50.118;8.952;2022-12-07T12:10:17;3.73;;;1.73;;
4585;SDS011;2305;50.118;8.952;2022-12-07T12:16:15;3.57;;;2.40;;
4585;SDS011;2305;50.118;8.952;2022-12-07T12:19:03;3.03;;;1.90;;
4585;SDS011;2305;50.118;8.952;2022-12-07T12:21:47;2.90;;;2.00;;
4585;SDS011;2305;50.118;8.952;2022-12-07T12:24:25;9.10;;;2.50;;
4585;SDS011;2305;50.118;8.952;2022-12-07T12:26:58;4.17;;;2.10;;
4585;SDS011;2305;50.118;8.952;2022-12-07T12:29:33;7.73;;;2.87;;
4585;SDS011;2305;50.118;8.952;2022-12-07T12:32:07;5.90;;;2.80;;
4585;SDS011;2305;50.118;8.952;2022-12-07T12:34:57;5.43;;;2.70;;
4585;SDS011;2305;50.118;8.952;2022-12-07T12:37:40;5.43;;;2.50;;
4585;SDS011;2305;50.118;8.952;2022-12-07T12:55:42;5.67;;;2.23;;
4585;SDS011;2305;50.118;8.952;2022-12-07T13:01:36;8.07;;;2.33;;
4585;SDS011;2305;50.118;8.952;2022-12-07T13:10:29;6.00;;;2.80;;
4585;SDS011;2305;50.118;8.952;2022-12-07T13:13:33;3.43;;;2.40;;
4585;SDS011;2305;50.118;8.952;2022-12-07T13:22:39;5.77;;;1.67;;
4585;SDS011;2305;50.118;8.952;2022-12-07T13:25:11;5.20;;;1.80;;
4585;SDS011;2305;50.118;8.952;2022-12-07T13:27:50;3.80;;;1.70;;
4585;SDS011;2305;50.118;8.952;2022-12-07T13:30:23;9.10;;;1.83;;
4585;SDS011;2305;50.118;8.952;2022-12-07T13:32:54;3.23;;;1.73;;
4585;SDS011;2305;50.118;8.952;2022-12-07T13:35:31;4.37;;;1.63;;
4585;SDS011;2305;50.118;8.952;2022-12-07T13:38:03;2.20;;;1.43;;
4585;SDS011;2305;50.118;8.952;2022-12-07T13:40:34;6.90;;;1.67;;
4585;SDS011;2305;50.118;8.952;2022-12-07T13:43:04;5.23;;;1.50;;
4585;SDS011;2305;50.118;8.952;2022-12-07T13:45:40;4.73;;;1.50;;
4585;SDS011;2305;50.118;8.952;2022-12-07T13:48:20;3.23;;;1.43;;
4585;SDS011;2305;50.118;8.952;2022-12-07T13:50:52;5.10;;;1.70;;
4585;SDS011;2305;50.118;8.952;2022-12-07T13:53:24;5.67;;;2.00;;
4585;SDS011;2305;50.118;8.952;2022-12-07T13:56:00;3.63;;;2.27;;
4585;SDS011;2305;50.118;8.952;2022-12-07T13:58:30;2.40;;;1.77;;
4585;SDS011;2305;50.118;8.952;2022-12-07T14:01:00;6.47;;;2.10;;
4585;SDS011;2305;50.118;8.952;2022-12-07T14:03:31;3.33;;;2.07;;
4585;SDS011;2305;50.118;8.952;2022-12-07T14:06:05;4.77;;;2.27;;
4585;SDS011;2305;50.118;8.952;2022-12-07T14:09:07;4.70;;;2.20;;
4585;SDS011;2305;50.118;8.952;2022-12-07T14:11:37;4.90;;;1.90;;
4585;SDS011;2305;50.118;8.952;2022-12-07T14:14:10;7.30;;;2.10;;
4585;SDS011;2305;50.118;8.952;2022-12-07T14:16:54;4.60;;;1.90;;
4585;SDS011;2305;50.118;8.952;2022-12-07T14:19:44;5.90;;;2.63;;
4585;SDS011;2305;50.118;8.952;2022-12-07T14:22:20;5.40;;;2.40;;
4585;SDS011;2305;50.118;8.952;2022-12-07T14:25:00;7.73;;;2.20;;
4585;SDS011;2305;50.118;8.952;2022-12-07T14:27:39;4.43;;;1.70;;
4585;SDS011;2305;50.118;8.952;2022-12-07T14:30:23;4.40;;;1.90;;
4585;SDS011;2305;50.118;8.952;2022-12-07T14:32:57;4.53;;;2.40;;
4585;SDS011;2305;50.118;8.952;2022-12-07T14:35:31;7.73;;;2.60;;
4585;SDS011;2305;50.118;8.952;2022-12-07T14:38:02;4.97;;;2.63;;
4585;SDS011;2305;50.118;8.952;2022-12-07T14:40:34;5.23;;;2.53;;
4585;SDS011;2305;50.118;8.952;2022-12-07T14:43:05;4.20;;;2.07;;
4585;SDS011;2305;50.118;8.952;2022-12-07T14:45:40;4.23;;;2.30;;
4585;SDS011;2305;50.118;8.952;2022-12-07T14:48:13;4.87;;;2.20;;
4585;SDS011;2305;50.118;8.952;2022-12-07T14:51:03;7.03;;;2.70;;
4585;SDS011;2305;50.118;8.952;2022-12-07T14:53:53;3.90;;;2.20;;
4585;SDS011;2305;50.118;8.952;2022-12-07T14:56:24;4.63;;;2.40;;
4585;SDS011;2305;50.118;8.952;2022-12-07T14:58:54;7.40;;;2.40;;
4585;SDS011;2305;50.118;8.952;2022-12-07T15:01:23;5.73;;;2.33;;
4585;SDS011;2305;50.118;8.952;2022-12-07T15:03:53;8.20;;;2.70;;
4585;SDS011;2305;50.118;8.952;2022-12-07T15:06:26;4.67;;;2.60;;
4585;SDS011;2305;50.118;8.952;2022-12-07T15:08:56;9.20;;;2.90;;
4585;SDS011;2305;50.118;8.952;2022-12-07T15:11:26;5.97;;;2.67;;
4585;SDS011;2305;50.118;8.952;2022-12-07T15:13:54;5.73;;;2.60;;
4585;SDS011;2305;50.118;8.952;2022-12-07T15:16:40;7.73;;;3.40;;
4585;SDS011;2305;50.118;8.952;2022-12-07T15:19:30;8.40;;;2.60;;
4585;SDS011;2305;50.118;8.952;2022-12-07T15:21:58;4.00;;;2.60;;
4585;SDS011;2305;50.118;8.952;2022-12-07T15:24:26;6.47;;;2.53;;
4585;SDS011;2305;50.118;8.952;2022-12-07T15:26:56;7.43;;;3.53;;
4585;SDS011;2305;50.118;8.952;2022-12-07T15:29:24;3.13;;;2.27;;
4585;SDS011;2305;50.118;8.952;2022-12-07T15:31:53;3.20;;;2.80;;
4585;SDS011;2305;50.118;8.952;2022-12-07T15:34:24;8.33;;;2.83;;
4585;SDS011;2305;50.118;8.952;2022-12-07T15:37:07;9.10;;;3.17;;
4585;SDS011;2305;50.118;8.952;2022-12-07T15:39:39;11.97;;;3.70;;
4585;SDS011;2305;50.118;8.952;2022-12-07T15:42:08;7.60;;;3.23;;
4585;SDS011;2305;50.118;8.952;2022-12-07T15:44:37;4.93;;;2.83;;
4585;SDS011;2305;50.118;8.952;2022-12-07T15:47:24;4.90;;;2.80;;
4585;SDS011;2305;50.118;8.952;2022-12-07T15:49:53;4.70;;;2.33;;
4585;SDS011;2305;50.118;8.952;2022-12-07T15:52:24;4.23;;;2.10;;
4585;SDS011;2305;50.118;8.952;2022-12-07T15:54:54;5.77;;;2.50;;
4585;SDS011;2305;50.118;8.952;2022-12-07T15:57:24;4.63;;;2.37;;
4585;SDS011;2305;50.118;8.952;2022-12-07T15:59:53;5.07;;;1.80;;
4585;SDS011;2305;50.118;8.952;2022-12-07T16:02:22;4.90;;;1.97;;
4585;SDS011;2305;50.118;8.952;2022-12-07T16:04:53;3.43;;;1.97;;
4585;SDS011;2305;50.118;8.952;2022-12-07T16:07:21;2.20;;;1.70;;
4585;SDS011;2305;50.118;8.952;2022-12-07T16:09:55;2.53;;;1.73;;
4585;SDS011;2305;50.118;8.952;2022-12-07T16:12:27;2.97;;;2.20;;
4585;SDS011;2305;50.118;8.952;2022-12-07T16:14:55;5.10;;;2.13;;
4585;SDS011;2305;50.118;8.952;2022-12-07T16:17:26;4.40;;;1.80;;
4585;SDS011;2305;50.118;8.952;2022-12-07T16:19:54;5.90;;;1.70;;
4585;SDS011;2305;50.118;8.952;2022-12-07T16:22:24;3.47;;;1.70;;
4585;SDS011;2305;50.118;8.952;2022-12-07T16:24:53;6.27;;;2.40;;